sensor_id;sensor_type;location;lat;lon;timestamp;P1;durP1;ratioP1;P2;durP2;ratioP2
781;SDS011;374;52.568;13.402;2023-09-19T00:00:37;3.00;;;2.60;;
781;SDS011;374;52.568;13.402;2023-09-19T00:03:03;2.77;;;2.57;;
781;SDS011;374;52.568;13.402;2023-09-19T00:05:33;4.10;;;2.53;;
781;SDS011;374;52.568;13.402;2023-09-19T00:08:00;3.50;;;2.70;;
781;SDS011;374;52.568;13.402;2023-09-19T00:10:29;4.73;;;2.67;;
781;SDS011;374;52.568;13.402;2023-09-19T00:13:00;3.63;;;2.50;;
781;SDS011;374;52.568;13.402;2023-09-19T00:15:30;4.03;;;3.10;;
781;SDS011;374;52.568;13.402;2023-09-19T00:18:00;3.00;;;2.70;;
781;SDS011;374;52.568;13.402;2023-09-19T00:20:26;4.10;;;2.93;;
781;SDS011;374;52.568;13.402;2023-09-19T00:22:51;4.23;;;3.40;;
781;SDS011;374;52.568;13.402;2023-09-19T00:25:18;7.80;;;4.73;;
781;SDS011;374;52.568;13.402;2023-09-19T00:27:45;3.90;;;2.83;;
781;SDS011;374;52.568;13.402;2023-09-19T00:30:12;3.93;;;3.40;;
781;SDS011;374;52.568;13.402;2023-09-19T00:32:44;5.10;;;3.47;;
781;SDS011;374;52.568;13.402;2023-09-19T00:35:12;4.73;;;2.80;;
781;SDS011;374;52.568;13.402;2023-09-19T00:37:39;5.67;;;2.83;;
781;SDS011;374;52.568;13.402;2023-09-19T00:40:05;3.53;;;2.60;;
781;SDS011;374;52.568;13.402;2023-09-19T00:42:34;4.37;;;2.97;;
781;SDS011;374;52.568;13.402;2023-09-19T00:45:03;2.60;;;2.17;;
781;SDS011;374;52.568;13.402;2023-09-19T00:47:30;3.90;;;2.27;;
781;SDS011;374;52.568;13.402;2023-09-19T00:49:55;3.03;;;2.50;;
781;SDS011;374;52.568;13.402;2023-09-19T00:52:22;3.97;;;2.23;;
781;SDS011;374;52.568;13.402;2023-09-19T00:54:48;4.07;;;2.40;;
781;SDS011;374;52.568;13.402;2023-09-19T00:57:14;4.27;;;2.87;;
781;SDS011;374;52.568;13.402;2023-09-19T00:59:44;3.50;;;3.20;;
781;SDS011;374;52.568;13.402;2023-09-19T01:02:14;3.33;;;2.73;;
781;SDS011;374;52.568;13.402;2023-09-19T01:04:40;2.70;;;2.50;;
781;SDS011;374;52.568;13.402;2023-09-19T01:07:07;3.57;;;2.80;;
781;SDS011;374;52.568;13.402;2023-09-19T01:09:33;3.63;;;2.60;;
781;SDS011;374;52.568;13.402;2023-09-19T01:12:01;4.13;;;2.70;;
781;SDS011;374;52.568;13.402;2023-09-19T01:14:54;3.37;;;3.07;;
781;SDS011;374;52.568;13.402;2023-09-19T01:17:25;5.63;;;2.53;;
781;SDS011;374;52.568;13.402;2023-09-19T01:20:08;4.93;;;2.90;;
781;SDS011;374;52.568;13.402;2023-09-19T01:23:02;3.03;;;2.73;;
781;SDS011;374;52.568;13.402;2023-09-19T01:26:17;4.23;;;2.80;;
781;SDS011;374;52.568;13.402;2023-09-19T01:28:53;3.40;;;2.40;;
781;SDS011;374;52.568;13.402;2023-09-19T01:31:40;2.97;;;2.47;;
781;SDS011;374;52.568;13.402;2023-09-19T01:34:09;3.30;;;3.00;;
781;SDS011;374;52.568;13.402;2023-09-19T01:36:35;2.70;;;2.47;;
781;SDS011;374;52.568;13.402;2023-09-19T01:39:12;2.90;;;1.90;;
781;SDS011;374;52.568;13.402;2023-09-19T01:41:45;3.40;;;2.47;;
781;SDS011;374;52.568;13.402;2023-09-19T01:44:31;4.33;;;2.50;;
781;SDS011;374;52.568;13.402;2023-09-19T01:50:07;3.03;;;2.10;;
781;SDS011;374;52.568;13.402;2023-09-19T01:55:29;4.00;;;2.60;;
781;SDS011;374;52.568;13.402;2023-09-19T02:00:32;2.80;;;2.10;;
781;SDS011;374;52.568;13.402;2023-09-19T02:03:02;3.43;;;3.00;;
781;SDS011;374;52.568;13.402;2023-09-19T02:05:28;2.30;;;2.10;;
781;SDS011;374;52.568;13.402;2023-09-19T02:07:54;4.00;;;3.00;;
781;SDS011;374;52.568;13.402;2023-09-19T02:10:21;3.50;;;2.13;;
781;SDS011;374;52.568;13.402;2023-09-19T02:12:48;2.80;;;2.60;;
781;SDS011;374;52.568;13.402;2023-09-19T02:15:14;2.80;;;2.60;;
781;SDS011;374;52.568;13.402;2023-09-19T02:17:41;2.83;;;2.50;;
781;SDS011;374;52.568;13.402;2023-09-19T02:20:07;2.67;;;2.47;;
781;SDS011;374;52.568;13.402;2023-09-19T02:22:35;3.30;;;2.57;;
781;SDS011;374;52.568;13.402;2023-09-19T02:25:01;3.83;;;2.90;;
781;SDS011;374;52.568;13.402;2023-09-19T02:27:29;3.33;;;3.03;;
781;SDS011;374;52.568;13.402;2023-09-19T02:29:55;3.20;;;2.90;;
781;SDS011;374;52.568;13.402;2023-09-19T02:32:21;2.53;;;2.33;;
781;SDS011;374;52.568;13.402;2023-09-19T02:34:46;3.33;;;3.03;;
781;SDS011;374;52.568;13.402;2023-09-19T02:37:12;3.53;;;3.23;;
781;SDS011;374;52.568;13.402;2023-09-19T02:39:38;2.97;;;2.73;;
781;SDS011;374;52.568;13.402;2023-09-19T02:42:04;2.77;;;2.57;;
781;SDS011;374;52.568;13.402;2023-09-19T02:44:29;4.47;;;2.97;;
781;SDS011;374;52.568;13.402;2023-09-19T02:46:55;2.53;;;2.33;;
781;SDS011;374;52.568;13.402;2023-09-19T02:49:22;2.73;;;2.53;;
781;SDS011;374;52.568;13.402;2023-09-19T02:51:48;3.27;;;2.40;;
781;SDS011;374;52.568;13.402;2023-09-19T02:54:13;2.97;;;2.67;;
781;SDS011;374;52.568;13.402;2023-09-19T02:56:40;4.30;;;2.60;;
781;SDS011;374;52.568;13.402;2023-09-19T02:59:06;2.97;;;2.47;;
781;SDS011;374;52.568;13.402;2023-09-19T03:01:32;3.60;;;2.60;;
781;SDS011;374;52.568;13.402;2023-09-19T03:03:58;3.33;;;2.50;;
781;SDS011;374;52.568;13.402;2023-09-19T03:06:24;3.20;;;2.77;;
781;SDS011;374;52.568;13.402;2023-09-19T03:08:49;2.70;;;2.50;;
781;SDS011;374;52.568;13.402;2023-09-19T03:11:16;3.40;;;2.80;;
781;SDS011;374;52.568;13.402;2023-09-19T03:13:46;5.27;;;3.00;;
781;SDS011;374;52.568;13.402;2023-09-19T03:16:15;3.77;;;3.43;;
781;SDS011;374;52.568;13.402;2023-09-19T03:18:41;2.93;;;2.63;;
781;SDS011;374;52.568;13.402;2023-09-19T03:21:06;3.43;;;2.43;;
781;SDS011;374;52.568;13.402;2023-09-19T03:23:32;2.70;;;2.50;;
781;SDS011;374;52.568;13.402;2023-09-19T03:25:57;2.10;;;1.90;;
781;SDS011;374;52.568;13.402;2023-09-19T03:28:24;2.27;;;2.07;;
781;SDS011;374;52.568;13.402;2023-09-19T03:31:02;2.90;;;2.37;;
781;SDS011;374;52.568;13.402;2023-09-19T03:33:28;5.07;;;2.30;;
781;SDS011;374;52.568;13.402;2023-09-19T03:35:56;2.20;;;1.93;;
781;SDS011;374;52.568;13.402;2023-09-19T03:38:23;2.43;;;2.10;;
781;SDS011;374;52.568;13.402;2023-09-19T03:40:48;2.77;;;2.57;;
781;SDS011;374;52.568;13.402;2023-09-19T03:43:14;2.57;;;1.90;;
781;SDS011;374;52.568;13.402;2023-09-19T03:45:39;2.10;;;1.90;;
781;SDS011;374;52.568;13.402;2023-09-19T03:48:09;2.00;;;1.83;;
781;SDS011;374;52.568;13.402;2023-09-19T03:50:35;2.80;;;2.50;;
781;SDS011;374;52.568;13.402;2023-09-19T03:53:01;1.80;;;1.70;;
781;SDS011;374;52.568;13.402;2023-09-19T03:55:27;4.00;;;2.07;;
781;SDS011;374;52.568;13.402;2023-09-19T03:57:52;2.53;;;1.90;;
781;SDS011;374;52.568;13.402;2023-09-19T04:00:18;2.07;;;1.97;;
781;SDS011;374;52.568;13.402;2023-09-19T04:02:47;2.33;;;2.00;;
781;SDS011;374;52.568;13.402;2023-09-19T04:05:13;1.90;;;1.80;;
781;SDS011;374;52.568;13.402;2023-09-19T04:07:38;2.23;;;1.93;;
781;SDS011;374;52.568;13.402;2023-09-19T04:10:04;3.50;;;2.03;;
781;SDS011;374;52.568;13.402;2023-09-19T04:12:31;2.90;;;2.50;;
781;SDS011;374;52.568;13.402;2023-09-19T04:14:57;2.90;;;2.70;;
781;SDS011;374;52.568;13.402;2023-09-19T04:17:23;3.20;;;2.13;;
781;SDS011;374;52.568;13.402;2023-09-19T04:19:48;4.40;;;2.30;;
781;SDS011;374;52.568;13.402;2023-09-19T04:22:16;2.30;;;2.00;;
781;SDS011;374;52.568;13.402;2023-09-19T04:24:41;3.47;;;1.90;;
781;SDS011;374;52.568;13.402;2023-09-19T04:27:07;2.60;;;2.33;;
781;SDS011;374;52.568;13.402;2023-09-19T04:29:34;3.07;;;2.37;;
781;SDS011;374;52.568;13.402;2023-09-19T04:32:00;4.60;;;2.33;;
781;SDS011;374;52.568;13.402;2023-09-19T04:34:25;3.00;;;2.43;;
781;SDS011;374;52.568;13.402;2023-09-19T04:36:51;4.70;;;2.60;;
781;SDS011;374;52.568;13.402;2023-09-19T04:39:17;3.30;;;2.50;;
781;SDS011;374;52.568;13.402;2023-09-19T04:41:43;3.67;;;2.40;;
781;SDS011;374;52.568;13.402;2023-09-19T04:44:12;3.30;;;2.80;;
781;SDS011;374;52.568;13.402;2023-09-19T04:46:38;2.27;;;2.00;;
781;SDS011;374;52.568;13.402;2023-09-19T04:49:04;2.83;;;2.50;;
781;SDS011;374;52.568;13.402;2023-09-19T04:51:29;3.00;;;2.17;;
781;SDS011;374;52.568;13.402;2023-09-19T04:53:59;4.13;;;3.33;;
781;SDS011;374;52.568;13.402;2023-09-19T04:56:25;2.93;;;2.60;;
781;SDS011;374;52.568;13.402;2023-09-19T04:58:50;3.20;;;2.70;;
781;SDS011;374;52.568;13.402;2023-09-19T05:01:15;2.30;;;2.20;;
781;SDS011;374;52.568;13.402;2023-09-19T05:03:41;2.87;;;2.67;;
781;SDS011;374;52.568;13.402;2023-09-19T05:06:07;4.67;;;2.70;;
781;SDS011;374;52.568;13.402;2023-09-19T05:08:32;3.50;;;2.70;;
781;SDS011;374;52.568;13.402;2023-09-19T05:10:58;2.80;;;2.50;;
781;SDS011;374;52.568;13.402;2023-09-19T05:13:26;4.07;;;2.90;;
781;SDS011;374;52.568;13.402;2023-09-19T05:15:52;3.00;;;2.30;;
781;SDS011;374;52.568;13.402;2023-09-19T05:18:17;2.50;;;2.30;;
781;SDS011;374;52.568;13.402;2023-09-19T05:20:45;5.37;;;2.50;;
781;SDS011;374;52.568;13.402;2023-09-19T05:23:11;2.50;;;2.33;;
781;SDS011;374;52.568;13.402;2023-09-19T05:25:37;4.20;;;3.80;;
781;SDS011;374;52.568;13.402;2023-09-19T05:28:04;3.80;;;2.87;;
781;SDS011;374;52.568;13.402;2023-09-19T05:30:31;5.20;;;2.50;;
781;SDS011;374;52.568;13.402;2023-09-19T05:32:57;3.90;;;2.97;;
781;SDS011;374;52.568;13.402;2023-09-19T05:35:23;2.73;;;2.53;;
781;SDS011;374;52.568;13.402;2023-09-19T05:37:52;5.83;;;2.60;;
781;SDS011;374;52.568;13.402;2023-09-19T05:40:20;3.53;;;2.53;;
781;SDS011;374;52.568;13.402;2023-09-19T05:42:46;3.33;;;2.87;;
781;SDS011;374;52.568;13.402;2023-09-19T05:45:12;2.43;;;2.23;;
781;SDS011;374;52.568;13.402;2023-09-19T05:47:39;2.60;;;2.40;;
781;SDS011;374;52.568;13.402;2023-09-19T05:50:06;2.53;;;2.33;;
781;SDS011;374;52.568;13.402;2023-09-19T05:52:34;2.67;;;2.47;;
781;SDS011;374;52.568;13.402;2023-09-19T05:55:04;3.70;;;3.00;;
781;SDS011;374;52.568;13.402;2023-09-19T05:57:31;3.47;;;2.70;;
781;SDS011;374;52.568;13.402;2023-09-19T05:59:57;2.93;;;2.60;;
781;SDS011;374;52.568;13.402;2023-09-19T06:02:23;2.47;;;2.37;;
781;SDS011;374;52.568;13.402;2023-09-19T06:04:48;3.93;;;2.70;;
781;SDS011;374;52.568;13.402;2023-09-19T06:07:14;3.20;;;2.47;;
781;SDS011;374;52.568;13.402;2023-09-19T06:09:41;3.00;;;2.50;;
781;SDS011;374;52.568;13.402;2023-09-19T06:12:06;5.50;;;2.60;;
781;SDS011;374;52.568;13.402;2023-09-19T06:14:32;3.53;;;3.23;;
781;SDS011;374;52.568;13.402;2023-09-19T06:16:58;3.30;;;3.00;;
781;SDS011;374;52.568;13.402;2023-09-19T06:19:25;2.27;;;2.07;;
781;SDS011;374;52.568;13.402;2023-09-19T06:21:52;3.27;;;2.80;;
781;SDS011;374;52.568;13.402;2023-09-19T06:24:19;2.57;;;2.37;;
781;SDS011;374;52.568;13.402;2023-09-19T06:26:44;3.93;;;2.40;;
781;SDS011;374;52.568;13.402;2023-09-19T06:29:10;5.77;;;2.70;;
781;SDS011;374;52.568;13.402;2023-09-19T06:31:35;3.10;;;2.53;;
781;SDS011;374;52.568;13.402;2023-09-19T06:34:03;4.60;;;2.30;;
781;SDS011;374;52.568;13.402;2023-09-19T06:36:29;3.00;;;2.80;;
781;SDS011;374;52.568;13.402;2023-09-19T06:38:54;2.37;;;2.17;;
781;SDS011;374;52.568;13.402;2023-09-19T06:41:20;3.23;;;2.50;;
781;SDS011;374;52.568;13.402;2023-09-19T06:43:49;4.80;;;2.70;;
781;SDS011;374;52.568;13.402;2023-09-19T06:46:17;3.40;;;3.10;;
781;SDS011;374;52.568;13.402;2023-09-19T06:48:43;3.60;;;3.07;;
781;SDS011;374;52.568;13.402;2023-09-19T06:51:09;3.37;;;3.07;;
781;SDS011;374;52.568;13.402;2023-09-19T06:53:34;2.90;;;2.70;;
781;SDS011;374;52.568;13.402;2023-09-19T06:56:01;4.50;;;2.50;;
781;SDS011;374;52.568;13.402;2023-09-19T06:58:27;3.10;;;2.57;;
781;SDS011;374;52.568;13.402;2023-09-19T07:00:53;4.60;;;2.60;;
781;SDS011;374;52.568;13.402;2023-09-19T07:03:19;3.00;;;2.80;;
781;SDS011;374;52.568;13.402;2023-09-19T07:05:47;4.47;;;3.20;;
781;SDS011;374;52.568;13.402;2023-09-19T07:08:13;4.40;;;3.10;;
781;SDS011;374;52.568;13.402;2023-09-19T07:10:40;3.77;;;2.70;;
781;SDS011;374;52.568;13.402;2023-09-19T07:13:13;4.03;;;3.00;;
781;SDS011;374;52.568;13.402;2023-09-19T07:15:41;3.30;;;2.80;;
781;SDS011;374;52.568;13.402;2023-09-19T07:18:11;4.10;;;3.33;;
781;SDS011;374;52.568;13.402;2023-09-19T07:20:39;3.23;;;2.97;;
781;SDS011;374;52.568;13.402;2023-09-19T07:23:10;3.70;;;2.80;;
781;SDS011;374;52.568;13.402;2023-09-19T07:25:38;3.13;;;2.83;;
781;SDS011;374;52.568;13.402;2023-09-19T07:28:04;3.30;;;3.00;;
781;SDS011;374;52.568;13.402;2023-09-19T07:30:30;3.73;;;3.00;;
781;SDS011;374;52.568;13.402;2023-09-19T07:32:55;2.83;;;2.53;;
781;SDS011;374;52.568;13.402;2023-09-19T07:35:21;2.83;;;2.60;;
781;SDS011;374;52.568;13.402;2023-09-19T07:37:47;5.37;;;3.17;;
781;SDS011;374;52.568;13.402;2023-09-19T07:40:16;3.13;;;2.50;;
781;SDS011;374;52.568;13.402;2023-09-19T07:42:42;5.00;;;2.60;;
781;SDS011;374;52.568;13.402;2023-09-19T07:45:11;6.93;;;3.43;;
781;SDS011;374;52.568;13.402;2023-09-19T07:47:39;3.80;;;2.90;;
781;SDS011;374;52.568;13.402;2023-09-19T07:50:08;3.07;;;2.87;;
781;SDS011;374;52.568;13.402;2023-09-19T07:52:34;3.67;;;3.33;;
781;SDS011;374;52.568;13.402;2023-09-19T07:55:00;4.60;;;4.13;;
781;SDS011;374;52.568;13.402;2023-09-19T07:57:26;4.00;;;3.20;;
781;SDS011;374;52.568;13.402;2023-09-19T07:59:53;3.20;;;2.90;;
781;SDS011;374;52.568;13.402;2023-09-19T08:02:19;4.17;;;3.87;;
781;SDS011;374;52.568;13.402;2023-09-19T08:04:46;4.03;;;3.60;;
781;SDS011;374;52.568;13.402;2023-09-19T08:07:12;6.80;;;3.30;;
781;SDS011;374;52.568;13.402;2023-09-19T08:09:41;3.90;;;3.30;;
781;SDS011;374;52.568;13.402;2023-09-19T08:12:11;4.77;;;4.20;;
781;SDS011;374;52.568;13.402;2023-09-19T08:14:36;4.03;;;3.63;;
781;SDS011;374;52.568;13.402;2023-09-19T08:17:06;6.97;;;3.73;;
781;SDS011;374;52.568;13.402;2023-09-19T08:19:33;4.17;;;3.80;;
781;SDS011;374;52.568;13.402;2023-09-19T08:21:59;5.00;;;3.50;;
781;SDS011;374;52.568;13.402;2023-09-19T08:24:28;3.80;;;2.90;;
781;SDS011;374;52.568;13.402;2023-09-19T08:26:54;4.17;;;3.20;;
781;SDS011;374;52.568;13.402;2023-09-19T08:29:20;5.07;;;3.47;;
781;SDS011;374;52.568;13.402;2023-09-19T08:31:55;3.33;;;3.10;;
781;SDS011;374;52.568;13.402;2023-09-19T08:34:22;4.40;;;3.33;;
781;SDS011;374;52.568;13.402;2023-09-19T08:36:52;3.40;;;3.20;;
781;SDS011;374;52.568;13.402;2023-09-19T08:39:21;5.83;;;3.70;;
781;SDS011;374;52.568;13.402;2023-09-19T08:41:47;4.70;;;4.30;;
781;SDS011;374;52.568;13.402;2023-09-19T08:44:25;4.43;;;3.90;;
781;SDS011;374;52.568;13.402;2023-09-19T08:46:55;4.33;;;3.93;;
781;SDS011;374;52.568;13.402;2023-09-19T08:49:34;4.03;;;3.63;;
781;SDS011;374;52.568;13.402;2023-09-19T08:52:10;9.40;;;3.53;;
781;SDS011;374;52.568;13.402;2023-09-19T08:54:51;4.97;;;4.00;;
781;SDS011;374;52.568;13.402;2023-09-19T08:57:18;4.33;;;3.97;;
781;SDS011;374;52.568;13.402;2023-09-19T08:59:47;4.60;;;4.20;;
781;SDS011;374;52.568;13.402;2023-09-19T09:02:16;3.63;;;3.33;;
781;SDS011;374;52.568;13.402;2023-09-19T09:04:44;4.93;;;3.83;;
781;SDS011;374;52.568;13.402;2023-09-19T09:07:11;5.07;;;4.13;;
781;SDS011;374;52.568;13.402;2023-09-19T09:09:38;5.00;;;3.43;;
781;SDS011;374;52.568;13.402;2023-09-19T09:12:08;4.07;;;3.77;;
781;SDS011;374;52.568;13.402;2023-09-19T09:14:38;6.20;;;3.70;;
781;SDS011;374;52.568;13.402;2023-09-19T09:17:04;4.60;;;4.20;;
781;SDS011;374;52.568;13.402;2023-09-19T09:19:30;4.33;;;3.70;;
781;SDS011;374;52.568;13.402;2023-09-19T09:22:05;8.20;;;3.63;;
781;SDS011;374;52.568;13.402;2023-09-19T09:24:34;5.40;;;3.83;;
781;SDS011;374;52.568;13.402;2023-09-19T09:27:03;6.10;;;3.93;;
781;SDS011;374;52.568;13.402;2023-09-19T09:32:24;3.80;;;3.47;;
781;SDS011;374;52.568;13.402;2023-09-19T09:34:55;5.07;;;3.77;;
781;SDS011;374;52.568;13.402;2023-09-19T09:37:24;3.70;;;3.40;;
781;SDS011;374;52.568;13.402;2023-09-19T09:42:30;6.43;;;3.30;;
781;SDS011;374;52.568;13.402;2023-09-19T09:45:18;4.13;;;3.80;;
781;SDS011;374;52.568;13.402;2023-09-19T09:47:53;4.17;;;3.80;;
781;SDS011;374;52.568;13.402;2023-09-19T09:50:24;4.33;;;3.57;;
781;SDS011;374;52.568;13.402;2023-09-19T09:52:54;5.40;;;4.80;;
781;SDS011;374;52.568;13.402;2023-09-19T09:55:28;7.60;;;4.10;;
781;SDS011;374;52.568;13.402;2023-09-19T09:58:49;7.60;;;4.87;;
781;SDS011;374;52.568;13.402;2023-09-19T10:00:57;4.20;;;3.80;;
781;SDS011;374;52.568;13.402;2023-09-19T10:03:31;6.17;;;5.07;;
781;SDS011;374;52.568;13.402;2023-09-19T10:05:59;5.30;;;3.97;;
781;SDS011;374;52.568;13.402;2023-09-19T10:08:30;4.37;;;3.80;;
781;SDS011;374;52.568;13.402;2023-09-19T10:13:55;5.00;;;3.93;;
781;SDS011;374;52.568;13.402;2023-09-19T10:16:23;5.67;;;3.97;;
781;SDS011;374;52.568;13.402;2023-09-19T10:18:50;7.87;;;4.40;;
781;SDS011;374;52.568;13.402;2023-09-19T10:21:19;6.33;;;4.00;;
781;SDS011;374;52.568;13.402;2023-09-19T10:23:47;5.47;;;4.10;;
781;SDS011;374;52.568;13.402;2023-09-19T10:26:17;12.03;;;4.07;;
781;SDS011;374;52.568;13.402;2023-09-19T10:28:45;5.00;;;4.07;;
781;SDS011;374;52.568;13.402;2023-09-19T10:31:17;6.67;;;3.70;;
781;SDS011;374;52.568;13.402;2023-09-19T10:33:49;4.23;;;3.63;;
781;SDS011;374;52.568;13.402;2023-09-19T10:36:24;4.80;;;4.07;;
781;SDS011;374;52.568;13.402;2023-09-19T10:38:55;4.57;;;4.17;;
781;SDS011;374;52.568;13.402;2023-09-19T10:41:23;4.87;;;3.73;;
781;SDS011;374;52.568;13.402;2023-09-19T10:43:50;4.83;;;3.70;;
781;SDS011;374;52.568;13.402;2023-09-19T10:46:19;5.17;;;3.60;;
781;SDS011;374;52.568;13.402;2023-09-19T10:48:45;6.17;;;4.03;;
781;SDS011;374;52.568;13.402;2023-09-19T10:51:16;7.47;;;3.57;;
781;SDS011;374;52.568;13.402;2023-09-19T10:53:49;4.60;;;3.80;;
781;SDS011;374;52.568;13.402;2023-09-19T10:56:20;3.23;;;2.87;;
781;SDS011;374;52.568;13.402;2023-09-19T10:58:49;4.60;;;3.10;;
781;SDS011;374;52.568;13.402;2023-09-19T11:01:16;10.53;;;3.80;;
781;SDS011;374;52.568;13.402;2023-09-19T11:03:42;3.50;;;3.20;;
781;SDS011;374;52.568;13.402;2023-09-19T11:06:18;4.30;;;3.90;;
781;SDS011;374;52.568;13.402;2023-09-19T11:08:51;4.33;;;3.80;;
781;SDS011;374;52.568;13.402;2023-09-19T11:14:46;4.20;;;3.23;;
781;SDS011;374;52.568;13.402;2023-09-19T11:20:16;5.27;;;3.10;;
781;SDS011;374;52.568;13.402;2023-09-19T11:30:31;4.93;;;3.47;;
781;SDS011;374;52.568;13.402;2023-09-19T11:36:01;4.17;;;3.63;;
781;SDS011;374;52.568;13.402;2023-09-19T11:46:32;5.00;;;2.73;;
781;SDS011;374;52.568;13.402;2023-09-19T11:49:05;4.40;;;3.50;;
781;SDS011;374;52.568;13.402;2023-09-19T11:51:41;4.17;;;3.37;;
781;SDS011;374;52.568;13.402;2023-09-19T11:54:10;3.73;;;2.57;;
781;SDS011;374;52.568;13.402;2023-09-19T11:56:43;6.93;;;3.17;;
781;SDS011;374;52.568;13.402;2023-09-19T11:59:10;5.20;;;3.07;;
781;SDS011;374;52.568;13.402;2023-09-19T12:01:36;4.07;;;2.50;;
781;SDS011;374;52.568;13.402;2023-09-19T12:04:05;2.87;;;2.53;;
781;SDS011;374;52.568;13.402;2023-09-19T12:06:33;5.40;;;3.10;;
781;SDS011;374;52.568;13.402;2023-09-19T12:09:00;3.40;;;2.50;;
781;SDS011;374;52.568;13.402;2023-09-19T12:11:28;5.80;;;2.77;;
781;SDS011;374;52.568;13.402;2023-09-19T12:13:58;6.10;;;2.70;;
781;SDS011;374;52.568;13.402;2023-09-19T12:16:25;4.93;;;3.00;;
781;SDS011;374;52.568;13.402;2023-09-19T12:18:55;5.90;;;4.17;;
781;SDS011;374;52.568;13.402;2023-09-19T12:21:22;7.43;;;5.17;;
781;SDS011;374;52.568;13.402;2023-09-19T12:26:29;4.00;;;3.43;;
781;SDS011;374;52.568;13.402;2023-09-19T12:29:02;3.83;;;3.20;;
781;SDS011;374;52.568;13.402;2023-09-19T12:31:29;7.20;;;2.90;;
781;SDS011;374;52.568;13.402;2023-09-19T12:34:01;3.43;;;1.93;;
781;SDS011;374;52.568;13.402;2023-09-19T12:36:27;3.23;;;2.60;;
781;SDS011;374;52.568;13.402;2023-09-19T12:38:55;3.73;;;2.47;;
781;SDS011;374;52.568;13.402;2023-09-19T12:41:24;3.73;;;2.10;;
781;SDS011;374;52.568;13.402;2023-09-19T12:43:51;2.57;;;2.23;;
781;SDS011;374;52.568;13.402;2023-09-19T12:46:21;4.50;;;2.60;;
781;SDS011;374;52.568;13.402;2023-09-19T12:48:51;2.13;;;1.93;;
781;SDS011;374;52.568;13.402;2023-09-19T12:51:47;2.30;;;1.93;;
781;SDS011;374;52.568;13.402;2023-09-19T12:54:14;2.77;;;2.57;;
781;SDS011;374;52.568;13.402;2023-09-19T12:56:41;2.87;;;1.80;;
781;SDS011;374;52.568;13.402;2023-09-19T12:59:09;4.00;;;2.23;;
781;SDS011;374;52.568;13.402;2023-09-19T13:01:39;2.70;;;2.37;;
781;SDS011;374;52.568;13.402;2023-09-19T13:04:12;4.30;;;2.17;;
781;SDS011;374;52.568;13.402;2023-09-19T13:06:40;6.10;;;2.67;;
781;SDS011;374;52.568;13.402;2023-09-19T13:09:08;2.87;;;1.70;;
781;SDS011;374;52.568;13.402;2023-09-19T13:11:36;4.23;;;2.63;;
781;SDS011;374;52.568;13.402;2023-09-19T13:14:15;6.47;;;2.43;;
781;SDS011;374;52.568;13.402;2023-09-19T13:17:05;2.00;;;1.90;;
781;SDS011;374;52.568;13.402;2023-09-19T13:19:47;4.60;;;2.10;;
781;SDS011;374;52.568;13.402;2023-09-19T13:25:03;2.70;;;1.73;;
781;SDS011;374;52.568;13.402;2023-09-19T13:27:31;2.87;;;2.23;;
781;SDS011;374;52.568;13.402;2023-09-19T13:29:58;2.27;;;2.00;;
781;SDS011;374;52.568;13.402;2023-09-19T13:32:24;2.63;;;2.00;;
781;SDS011;374;52.568;13.402;2023-09-19T13:34:50;2.70;;;2.10;;
781;SDS011;374;52.568;13.402;2023-09-19T13:37:16;2.93;;;1.97;;
781;SDS011;374;52.568;13.402;2023-09-19T13:39:43;2.43;;;1.80;;
781;SDS011;374;52.568;13.402;2023-09-19T13:42:12;4.83;;;2.07;;
781;SDS011;374;52.568;13.402;2023-09-19T13:44:38;7.23;;;2.27;;
781;SDS011;374;52.568;13.402;2023-09-19T13:47:04;2.07;;;1.80;;
781;SDS011;374;52.568;13.402;2023-09-19T13:49:34;4.43;;;1.93;;
781;SDS011;374;52.568;13.402;2023-09-19T13:52:00;2.40;;;2.20;;
781;SDS011;374;52.568;13.402;2023-09-19T13:54:28;3.43;;;1.73;;
781;SDS011;374;52.568;13.402;2023-09-19T13:56:53;5.27;;;2.37;;
781;SDS011;374;52.568;13.402;2023-09-19T13:59:19;4.27;;;2.07;;
781;SDS011;374;52.568;13.402;2023-09-19T14:01:48;6.40;;;2.60;;
781;SDS011;374;52.568;13.402;2023-09-19T14:04:14;3.43;;;2.20;;
781;SDS011;374;52.568;13.402;2023-09-19T14:06:41;4.67;;;2.57;;
781;SDS011;374;52.568;13.402;2023-09-19T14:09:07;3.73;;;3.33;;
781;SDS011;374;52.568;13.402;2023-09-19T14:11:33;3.60;;;2.50;;
781;SDS011;374;52.568;13.402;2023-09-19T14:13:58;2.63;;;2.03;;
781;SDS011;374;52.568;13.402;2023-09-19T14:16:25;3.80;;;2.10;;
781;SDS011;374;52.568;13.402;2023-09-19T14:18:55;2.80;;;2.00;;
781;SDS011;374;52.568;13.402;2023-09-19T14:21:20;3.40;;;2.20;;
781;SDS011;374;52.568;13.402;2023-09-19T14:23:45;2.50;;;2.30;;
781;SDS011;374;52.568;13.402;2023-09-19T14:26:11;2.43;;;1.97;;
781;SDS011;374;52.568;13.402;2023-09-19T14:28:37;4.77;;;2.63;;
781;SDS011;374;52.568;13.402;2023-09-19T14:31:06;4.50;;;2.70;;
781;SDS011;374;52.568;13.402;2023-09-19T14:33:32;3.33;;;2.40;;
781;SDS011;374;52.568;13.402;2023-09-19T14:35:58;4.97;;;2.60;;
781;SDS011;374;52.568;13.402;2023-09-19T14:38:23;3.27;;;2.83;;
781;SDS011;374;52.568;13.402;2023-09-19T14:40:58;2.67;;;2.00;;
781;SDS011;374;52.568;13.402;2023-09-19T14:43:27;3.83;;;2.10;;
781;SDS011;374;52.568;13.402;2023-09-19T14:45:54;2.70;;;2.30;;
781;SDS011;374;52.568;13.402;2023-09-19T14:48:22;3.63;;;2.30;;
781;SDS011;374;52.568;13.402;2023-09-19T14:50:51;3.63;;;2.47;;
781;SDS011;374;52.568;13.402;2023-09-19T14:53:17;2.60;;;2.13;;
781;SDS011;374;52.568;13.402;2023-09-19T14:55:43;3.23;;;2.90;;
781;SDS011;374;52.568;13.402;2023-09-19T14:58:10;3.50;;;2.10;;
781;SDS011;374;52.568;13.402;2023-09-19T15:00:36;2.63;;;2.23;;
781;SDS011;374;52.568;13.402;2023-09-19T15:03:01;4.30;;;2.40;;
781;SDS011;374;52.568;13.402;2023-09-19T15:05:27;3.87;;;3.47;;
781;SDS011;374;52.568;13.402;2023-09-19T15:07:55;4.70;;;2.70;;
781;SDS011;374;52.568;13.402;2023-09-19T15:10:21;2.10;;;1.90;;
781;SDS011;374;52.568;13.402;2023-09-19T15:12:47;8.80;;;2.20;;
781;SDS011;374;52.568;13.402;2023-09-19T15:15:13;3.23;;;2.40;;
781;SDS011;374;52.568;13.402;2023-09-19T15:17:38;4.70;;;2.60;;
781;SDS011;374;52.568;13.402;2023-09-19T15:20:05;2.80;;;2.27;;
781;SDS011;374;52.568;13.402;2023-09-19T15:22:35;3.00;;;2.70;;
781;SDS011;374;52.568;13.402;2023-09-19T15:25:01;3.43;;;3.13;;
781;SDS011;374;52.568;13.402;2023-09-19T15:27:30;4.33;;;3.23;;
781;SDS011;374;52.568;13.402;2023-09-19T15:29:57;5.33;;;2.70;;
781;SDS011;374;52.568;13.402;2023-09-19T15:32:27;2.80;;;2.40;;
781;SDS011;374;52.568;13.402;2023-09-19T15:34:54;2.73;;;2.10;;
781;SDS011;374;52.568;13.402;2023-09-19T15:37:20;4.47;;;2.53;;
781;SDS011;374;52.568;13.402;2023-09-19T15:39:47;7.50;;;3.43;;
781;SDS011;374;52.568;13.402;2023-09-19T15:42:16;3.90;;;3.27;;
781;SDS011;374;52.568;13.402;2023-09-19T15:44:46;3.63;;;2.83;;
781;SDS011;374;52.568;13.402;2023-09-19T15:47:16;9.70;;;6.13;;
781;SDS011;374;52.568;13.402;2023-09-19T15:49:42;18.07;;;12.07;;
781;SDS011;374;52.568;13.402;2023-09-19T15:52:08;18.50;;;12.33;;
781;SDS011;374;52.568;13.402;2023-09-19T15:54:33;10.50;;;8.47;;
781;SDS011;374;52.568;13.402;2023-09-19T15:57:00;11.40;;;8.80;;
781;SDS011;374;52.568;13.402;2023-09-19T15:59:25;14.13;;;10.10;;
781;SDS011;374;52.568;13.402;2023-09-19T16:01:51;15.23;;;9.60;;
781;SDS011;374;52.568;13.402;2023-09-19T16:04:16;7.43;;;6.63;;
781;SDS011;374;52.568;13.402;2023-09-19T16:06:51;9.83;;;6.97;;
781;SDS011;374;52.568;13.402;2023-09-19T16:09:18;7.17;;;5.47;;
781;SDS011;374;52.568;13.402;2023-09-19T16:11:44;9.17;;;5.60;;
781;SDS011;374;52.568;13.402;2023-09-19T16:14:09;6.80;;;5.20;;
781;SDS011;374;52.568;13.402;2023-09-19T16:16:36;9.10;;;6.30;;
781;SDS011;374;52.568;13.402;2023-09-19T16:19:03;9.37;;;6.10;;
781;SDS011;374;52.568;13.402;2023-09-19T16:21:31;9.40;;;6.27;;
781;SDS011;374;52.568;13.402;2023-09-19T16:23:58;7.37;;;4.67;;